Time;durP1;ratioP1;P1;durP2;ratioP2;P2;SDS_P1;SDS_P2;PMS_P1;PMS_P2;Temp;Humidity;BMP_temperature;BMP_pressure;BME280_temperature;BME280_humidity;BME280_pressure;Samples;Min_cycle;Max_cycle;Signal;HPM_P1;HPM_P2
2023/01/28 00:00:30;;;;;;;5.18;3.47;;;4.80;99.90;;;;;;5054248;28;20047;-61
2023/01/28 00:02:55;;;;;;;6.78;3.95;;;4.70;99.90;;;;;;5053787;28;20131;-62
2023/01/28 00:05:22;;;;;;;4.75;3.80;;;4.80;99.90;;;;;;5053758;28;20037;-62
2023/01/28 00:07:49;;;;;;;4.18;3.78;;;4.60;99.90;;;;;;5055381;28;20064;-62
2023/01/28 00:10:15;;;;;;;4.95;4.30;;;4.60;99.90;;;;;;5063732;28;20045;-62
2023/01/28 00:12:40;;;;;;;5.10;4.00;;;4.70;99.90;;;;;;5054100;28;20048;-61
2023/01/28 00:15:06;;;;;;;5.68;4.57;;;4.50;99.90;;;;;;5051730;28;20048;-61
2023/01/28 00:17:32;;;;;;;4.82;4.35;;;4.50;99.90;;;;;;5086070;28;20506;-61
2023/01/28 00:19:57;;;;;;;4.97;4.22;;;4.60;99.90;;;;;;5053822;28;20040;-61
2023/01/28 00:22:23;;;;;;;4.82;4.40;;;4.70;99.90;;;;;;5053136;28;20164;-61
2023/01/28 00:24:49;;;;;;;5.00;4.50;;;4.60;99.90;;;;;;5050865;28;20398;-61
2023/01/28 00:27:14;;;;;;;6.15;4.07;;;4.60;99.90;;;;;;5052432;28;20113;-61
2023/01/28 00:29:40;;;;;;;5.75;4.90;;;4.50;99.90;;;;;;5052784;28;20041;-62
2023/01/28 00:32:06;;;;;;;6.65;4.78;;;4.60;99.90;;;;;;5052306;28;20033;-61
2023/01/28 00:34:32;;;;;;;169.50;15.43;;;4.50;99.90;;;;;;5053985;28;20073;-61
2023/01/28 00:36:57;;;;;;;6.15;4.93;;;4.80;99.90;;;;;;5051039;28;20488;-61
2023/01/28 00:39:24;;;;;;;5.18;4.70;;;4.60;99.90;;;;;;5072339;28;20039;-61
2023/01/28 00:41:51;;;;;;;5.88;5.38;;;4.60;99.90;;;;;;5054217;28;20053;-61
2023/01/28 00:44:17;;;;;;;4.90;4.35;;;4.70;99.90;;;;;;5053437;28;20037;-61
2023/01/28 00:46:42;;;;;;;8.77;4.75;;;4.70;99.90;;;;;;5038539;28;20033;-61
2023/01/28 00:49:08;;;;;;;5.72;4.65;;;4.70;99.90;;;;;;5048773;28;20048;-61
2023/01/28 00:51:34;;;;;;;5.18;4.68;;;4.50;99.90;;;;;;5051404;28;20491;-61
2023/01/28 00:53:59;;;;;;;5.30;4.70;;;4.60;99.90;;;;;;5070905;28;20037;-61
2023/01/28 00:56:25;;;;;;;7.85;5.18;;;4.60;99.90;;;;;;5072881;28;20094;-61
2023/01/28 00:58:51;;;;;;;5.22;4.72;;;4.50;99.90;;;;;;5073155;28;20046;-61
2023/01/28 01:01:21;;;;;;;5.40;4.90;;;4.60;99.90;;;;;;5060940;28;20039;-61
2023/01/28 01:03:53;;;;;;;5.32;4.82;;;4.50;99.90;;;;;;5051754;28;20072;-61
2023/01/28 01:06:18;;;;;;;5.25;4.78;;;4.50;99.90;;;;;;5051730;28;20036;-61
2023/01/28 01:08:49;;;;;;;4.85;4.40;;;4.50;99.90;;;;;;5070511;28;20055;-61
2023/01/28 01:11:16;;;;;;;5.82;5.22;;;4.60;99.90;;;;;;5062804;28;20415;-61
2023/01/28 01:13:42;;;;;;;5.30;4.80;;;4.50;99.90;;;;;;5052786;28;20037;-61
2023/01/28 01:16:10;;;;;;;6.47;5.40;;;4.60;99.90;;;;;;5061050;28;20398;-61
2023/01/28 01:18:40;;;;;;;12.85;5.68;;;4.50;99.90;;;;;;5058507;28;20120;-61
2023/01/28 01:21:08;;;;;;;7.72;5.60;;;4.50;99.90;;;;;;5050488;28;20505;-61
2023/01/28 01:23:34;;;;;;;6.30;5.70;;;4.50;99.90;;;;;;5051451;28;20093;-61
2023/01/28 01:25:59;;;;;;;6.22;5.53;;;4.60;99.90;;;;;;5052525;28;20128;-62
2023/01/28 01:28:25;;;;;;;6.80;5.45;;;4.70;99.90;;;;;;5051192;28;20044;-61
2023/01/28 01:31:02;;;;;;;8.13;6.03;;;4.50;99.90;;;;;;5051670;28;20041;-61
2023/01/28 01:33:29;;;;;;;6.55;5.63;;;4.50;99.90;;;;;;5081647;28;20060;-62
2023/01/28 01:35:55;;;;;;;6.15;5.35;;;4.70;99.90;;;;;;5071878;28;20045;-61
2023/01/28 01:38:20;;;;;;;6.45;5.55;;;4.70;99.90;;;;;;5070237;28;20035;-61
2023/01/28 01:40:46;;;;;;;6.05;5.47;;;4.60;99.90;;;;;;5051632;28;20495;-62
2023/01/28 01:43:20;;;;;;;6.03;5.35;;;4.60;99.90;;;;;;5061796;28;20040;-62
2023/01/28 01:45:56;;;;;;;6.20;5.60;;;4.60;99.90;;;;;;5060733;28;20032;-61
2023/01/28 01:48:32;;;;;;;9.35;6.22;;;4.60;99.90;;;;;;5069150;28;20063;-62
2023/01/28 01:51:08;;;;;;;7.35;6.30;;;4.50;99.90;;;;;;5052205;28;20036;-61
2023/01/28 01:53:37;;;;;;;8.55;6.72;;;4.70;99.90;;;;;;5052237;28;20521;-62
2023/01/28 01:56:06;;;;;;;7.50;6.45;;;4.60;99.90;;;;;;5051140;28;20052;-61
2023/01/28 01:58:36;;;;;;;7.22;6.53;;;4.40;99.90;;;;;;5052066;28;20040;-61
2023/01/28 02:01:03;;;;;;;9.13;7.28;;;4.30;99.90;;;;;;5051771;28;20036;-61
2023/01/28 02:03:39;;;;;;;8.50;7.70;;;4.50;99.90;;;;;;5070727;28;20033;-61
2023/01/28 02:06:07;;;;;;;8.05;7.25;;;4.50;99.90;;;;;;5063290;28;20146;-61
2023/01/28 02:08:32;;;;;;;8.20;7.40;;;4.30;99.90;;;;;;5051332;28;20091;-61
2023/01/28 02:11:02;;;;;;;8.95;8.05;;;4.40;99.90;;;;;;5051653;28;20041;-61
2023/01/28 02:13:33;;;;;;;9.05;8.15;;;4.20;99.90;;;;;;5051650;28;20080;-61
2023/01/28 02:15:59;;;;;;;9.15;7.80;;;4.40;99.90;;;;;;5049712;28;20120;-61
2023/01/28 02:18:25;;;;;;;9.18;8.35;;;4.40;99.90;;;;;;5056706;28;20532;-61
2023/01/28 02:21:03;;;;;;;8.93;7.78;;;4.20;99.90;;;;;;5056206;28;20041;-61
2023/01/28 02:23:44;;;;;;;9.13;8.32;;;4.20;99.90;;;;;;5051500;28;20040;-61
2023/01/28 02:26:35;;;;;;;9.50;8.55;;;4.40;99.90;;;;;;5049697;28;20041;-61
2023/01/28 02:29:12;;;;;;;10.05;9.02;;;4.20;99.90;;;;;;5051664;28;20037;-61
2023/01/28 02:31:44;;;;;;;10.05;9.02;;;4.10;99.90;;;;;;5051535;28;20047;-61
2023/01/28 02:34:21;;;;;;;10.48;9.23;;;4.20;99.90;;;;;;5064468;28;20044;-61
2023/01/28 02:36:56;;;;;;;9.63;8.63;;;4.10;99.90;;;;;;5062752;28;20048;-61
2023/01/28 02:39:40;;;;;;;10.05;9.05;;;4.20;99.90;;;;;;5051441;28;20128;-61
2023/01/28 02:42:10;;;;;;;9.82;8.05;;;4.00;99.90;;;;;;5051419;28;20037;-61
2023/01/28 02:44:36;;;;;;;9.77;8.77;;;4.00;99.90;;;;;;5052385;28;20040;-61
2023/01/28 02:49:52;;;;;;;9.15;8.10;;;4.00;99.90;;;;;;5051573;28;20497;-61
2023/01/28 02:55:46;;;;;;;8.30;7.47;;;4.00;99.90;;;;;;5042497;28;20057;-61
2023/01/28 02:58:40;;;;;;;9.40;8.40;;;4.20;99.90;;;;;;5058023;28;20043;-61
2023/01/28 03:01:25;;;;;;;9.90;8.52;;;4.30;99.90;;;;;;5073304;28;20044;-61
2023/01/28 03:03:58;;;;;;;11.57;8.45;;;4.10;99.90;;;;;;5074634;28;20540;-61
2023/01/28 03:06:33;;;;;;;10.52;9.52;;;4.20;99.90;;;;;;5036749;28;20035;-61
2023/01/28 03:09:21;;;;;;;10.30;9.32;;;4.20;99.90;;;;;;5055129;28;20043;-61
2023/01/28 03:38:22;;;;;;;;;;;4.40;1.00;;;;;;5053987;28;20111;-61
2023/01/28 03:41:05;;;;;;;10.40;8.98;;;4.10;1.00;;;;;;5054414;28;19924;-61
2023/01/28 03:43:32;;;;;;;11.82;8.43;;;4.10;1.00;;;;;;5072022;28;20363;-61
2023/01/28 03:45:58;;;;;;;9.43;8.52;;;4.30;1.00;;;;;;5047737;28;20052;-61
2023/01/28 03:48:25;;;;;;;10.80;9.70;;;4.30;1.00;;;;;;5053401;28;20055;-61
2023/01/28 03:50:52;;;;;;;11.80;9.27;;;4.00;1.00;;;;;;5054369;28;20053;-61
2023/01/28 03:53:18;;;;;;;12.23;9.43;;;4.30;1.00;;;;;;5053565;28;20132;-61
2023/01/28 03:55:46;;;;;;;9.95;8.95;;;4.40;1.00;;;;;;5053990;28;20498;-61
2023/01/28 03:58:12;;;;;;;10.07;9.18;;;4.10;1.00;;;;;;5070729;28;20052;-61
2023/01/28 04:00:42;;;;;;;10.32;9.32;;;4.00;1.00;;;;;;5067354;28;20033;-61
2023/01/28 04:03:15;;;;;;;9.30;8.40;;;4.00;1.00;;;;;;5053579;28;20597;-61
2023/01/28 04:05:58;;;;;;;9.88;8.88;;;4.20;1.00;;;;;;5053732;28;20127;-62
2023/01/28 04:08:24;;;;;;;9.93;8.93;;;4.10;1.00;;;;;;5050663;28;20552;-61
2023/01/28 04:10:50;;;;;;;10.02;8.98;;;4.00;1.00;;;;;;5052488;28;20029;-61
2023/01/28 04:13:15;;;;;;;12.13;9.60;;;3.90;1.00;;;;;;5051422;28;20060;-61
2023/01/28 04:15:42;;;;;;;10.40;9.40;;;4.20;1.00;;;;;;5053310;28;20033;-61
2023/01/28 04:18:08;;;;;;;10.73;9.32;;;4.00;1.00;;;;;;5052142;28;20064;-61
2023/01/28 04:20:34;;;;;;;11.20;10.00;;;4.00;1.00;;;;;;5053816;28;20060;-61
2023/01/28 04:23:00;;;;;;;10.48;9.38;;;4.30;1.00;;;;;;5049084;28;20118;-62
2023/01/28 04:25:26;;;;;;;9.93;9.02;;;4.00;1.00;;;;;;5032761;28;20042;-61
2023/01/28 04:27:52;;;;;;;11.27;9.65;;;4.30;1.00;;;;;;5068809;28;20044;-61
2023/01/28 04:30:18;;;;;;;9.88;8.98;;;4.00;1.00;;;;;;5068377;28;20036;-61
2023/01/28 04:32:45;;;;;;;10.23;9.15;;;4.30;1.00;;;;;;5051468;28;20036;-61
2023/01/28 04:35:11;;;;;;;10.60;9.55;;;4.30;1.00;;;;;;5053570;28;20045;-61
2023/01/28 04:37:36;;;;;;;11.20;9.80;;;4.30;1.00;;;;;;5053494;28;20033;-61
2023/01/28 04:40:02;;;;;;;10.50;9.48;;;4.20;1.00;;;;;;5053548;28;20071;-61
2023/01/28 04:42:27;;;;;;;12.65;9.65;;;4.10;1.00;;;;;;5066405;28;20041;-61
2023/01/28 04:44:53;;;;;;;10.65;9.55;;;4.30;1.00;;;;;;5053543;28;20041;-61
2023/01/28 04:47:19;;;;;;;10.48;9.48;;;4.30;1.00;;;;;;5053055;28;20037;-61
2023/01/28 04:49:44;;;;;;;11.25;9.43;;;3.90;1.00;;;;;;5052033;28;20116;-61
2023/01/28 04:52:10;;;;;;;10.50;9.50;;;3.90;1.00;;;;;;5052834;28;20087;-61
2023/01/28 04:54:36;;;;;;;11.27;10.15;;;4.30;1.00;;;;;;5049374;28;20045;-61
2023/01/28 04:57:01;;;;;;;10.82;9.80;;;4.20;1.00;;;;;;5057851;28;20028;-61
2023/01/28 04:59:27;;;;;;;11.20;9.63;;;3.90;1.00;;;;;;5060852;28;20367;-61
2023/01/28 05:01:52;;;;;;;11.13;10.02;;;4.20;1.00;;;;;;5053081;28;20076;-61
2023/01/28 05:04:18;;;;;;;11.13;10.02;;;4.20;1.00;;;;;;5050693;28;20053;-61
2023/01/28 05:06:43;;;;;;;12.32;10.60;;;3.80;1.00;;;;;;5052877;28;20068;-61
2023/01/28 05:09:09;;;;;;;10.88;9.77;;;3.80;1.00;;;;;;5052831;28;20146;-61
2023/01/28 05:11:34;;;;;;;12.00;10.80;;;4.20;1.00;;;;;;5056062;28;20060;-61
2023/01/28 05:14:01;;;;;;;11.43;10.43;;;4.40;1.00;;;;;;5056645;28;20055;-61
2023/01/28 05:16:26;;;;;;;13.40;11.35;;;4.00;1.00;;;;;;5052882;28;20025;-61
2023/01/28 05:18:52;;;;;;;12.75;11.38;;;4.10;1.00;;;;;;5052194;28;20098;-61
2023/01/28 05:21:18;;;;;;;11.32;10.30;;;4.00;1.00;;;;;;5052602;28;20065;-61
2023/01/28 05:23:43;;;;;;;14.75;11.35;;;3.90;1.00;;;;;;5051877;28;20041;-61
2023/01/28 05:26:09;;;;;;;13.15;10.02;;;3.90;1.00;;;;;;5052182;28;20406;-61
2023/01/28 05:28:35;;;;;;;14.18;10.55;;;4.00;1.00;;;;;;5052712;28;20060;-61
2023/01/28 05:31:05;;;;;;;12.43;11.13;;;3.90;1.00;;;;;;5052458;28;20428;-61
2023/01/28 05:33:31;;;;;;;11.93;10.73;;;3.90;1.00;;;;;;5052584;28;20060;-61
2023/01/28 05:35:56;;;;;;;11.77;10.57;;;4.00;1.00;;;;;;5067657;28;20071;-61
2023/01/28 05:38:22;;;;;;;11.77;10.68;;;3.80;1.00;;;;;;5050055;28;20044;-61
2023/01/28 05:40:48;;;;;;;11.57;10.48;;;4.10;1.00;;;;;;5053111;28;20033;-61
2023/01/28 05:43:14;;;;;;;10.90;9.88;;;4.10;1.00;;;;;;5072104;28;20052;-61
2023/01/28 05:45:40;;;;;;;12.07;10.23;;;3.90;1.00;;;;;;5065892;28;20068;-61
2023/01/28 05:48:05;;;;;;;11.70;10.55;;;3.70;1.00;;;;;;5049895;28;20380;-62
2023/01/28 05:50:31;;;;;;;11.20;10.13;;;3.70;1.00;;;;;;5052174;28;20037;-61
2023/01/28 05:52:56;;;;;;;11.95;10.25;;;3.90;1.00;;;;;;5052042;28;20494;-61
2023/01/28 05:55:22;;;;;;;11.32;10.13;;;4.00;1.00;;;;;;5051644;28;20044;-61
2023/01/28 05:57:48;;;;;;;11.13;9.98;;;3.90;1.00;;;;;;5055539;28;20039;-61
2023/01/28 06:00:15;;;;;;;11.40;10.23;;;3.50;1.00;;;;;;5087106;28;20044;-61
2023/01/28 06:02:41;;;;;;;15.10;11.00;;;3.30;1.00;;;;;;5070858;28;20090;-61
2023/01/28 06:05:07;;;;;;;12.90;10.40;;;3.60;1.00;;;;;;5071907;28;20037;-61
2023/01/28 06:07:33;;;;;;;12.05;10.85;;;3.10;1.00;;;;;;5062850;28;20525;-61
2023/01/28 06:09:58;;;;;;;17.90;10.65;;;3.40;1.00;;;;;;5051623;28;20044;-60
2023/01/28 06:12:24;;;;;;;13.15;10.30;;;3.10;1.00;;;;;;5051857;28;20048;-61
2023/01/28 06:14:49;;;;;;;11.38;9.70;;;3.30;1.00;;;;;;5063435;28;20737;-61
2023/01/28 06:17:15;;;;;;;15.27;9.63;;;3.00;1.00;;;;;;5051722;28;20033;-61
2023/01/28 06:19:40;;;;;;;13.40;10.50;;;3.20;1.00;;;;;;5051677;28;20112;-61
2023/01/28 06:22:06;;;;;;;11.48;10.27;;;3.00;1.00;;;;;;5051730;28;20032;-61
2023/01/28 06:24:32;;;;;;;11.23;10.07;;;3.00;1.00;;;;;;5050188;28;20037;-62
2023/01/28 06:26:57;;;;;;;10.73;9.32;;;2.80;1.00;;;;;;5049120;28;20084;-61
2023/01/28 06:29:23;;;;;;;13.80;10.27;;;2.90;1.00;;;;;;5068187;28;20032;-61
2023/01/28 06:31:49;;;;;;;10.65;9.65;;;2.80;1.00;;;;;;5071570;28;20119;-61
2023/01/28 06:34:15;;;;;;;11.18;10.05;;;3.10;1.00;;;;;;5061954;28;20049;-61
2023/01/28 06:36:41;;;;;;;12.80;10.85;;;2.90;1.00;;;;;;5050930;28;20600;-62
2023/01/28 06:39:07;;;;;;;11.40;10.20;;;2.50;42.50;;;;;;5048942;28;20511;-61
2023/01/28 06:41:32;;;;;;;11.93;10.27;;;2.70;54.10;;;;;;5051488;28;20119;-61
2023/01/28 06:43:58;;;;;;;13.70;12.30;;;2.60;51.20;;;;;;5056264;28;20035;-61
2023/01/28 06:46:23;;;;;;;15.20;11.55;;;2.70;68.20;;;;;;5071290;28;20086;-61
2023/01/28 06:48:49;;;;;;;13.35;11.95;;;2.40;96.90;;;;;;5056112;28;20033;-61
2023/01/28 06:51:15;;;;;;;13.07;10.90;;;2.50;99.90;;;;;;5051378;28;20483;-61
2023/01/28 06:53:40;;;;;;;12.88;11.57;;;2.90;99.90;;;;;;5051173;28;20044;-61
2023/01/28 06:56:07;;;;;;;12.40;11.20;;;2.60;99.90;;;;;;5051245;28;20047;-61
2023/01/28 06:58:33;;;;;;;12.60;11.30;;;2.90;99.90;;;;;;5052606;28;20453;-61
2023/01/28 07:00:59;;;;;;;11.98;10.70;;;2.50;99.90;;;;;;5071257;28;20073;-61
2023/01/28 07:03:25;;;;;;;13.95;12.00;;;2.70;99.90;;;;;;5052633;28;20546;-61
2023/01/28 07:05:50;;;;;;;13.05;11.55;;;2.80;99.90;;;;;;5050536;28;20079;-61
2023/01/28 07:08:16;;;;;;;13.05;11.70;;;2.50;99.90;;;;;;5050404;28;20053;-61
2023/01/28 07:10:42;;;;;;;13.13;11.18;;;2.40;99.90;;;;;;5051059;28;20124;-60
2023/01/28 07:13:08;;;;;;;16.38;11.52;;;2.70;99.90;;;;;;5053539;28;20045;-61
2023/01/28 07:15:34;;;;;;;11.57;9.65;;;2.60;99.90;;;;;;5070725;28;20363;-61
2023/01/28 07:18:00;;;;;;;10.98;9.88;;;2.30;99.90;;;;;;5052890;28;20041;-60
2023/01/28 07:20:25;;;;;;;15.55;10.23;;;2.80;99.90;;;;;;5051288;28;20509;-61
2023/01/28 07:22:51;;;;;;;14.93;10.77;;;2.20;99.90;;;;;;5049104;28;20029;-61
2023/01/28 07:25:16;;;;;;;11.88;9.80;;;2.20;99.90;;;;;;5043409;28;20418;-60
2023/01/28 07:27:50;;;;;;;11.30;10.13;;;2.40;99.90;;;;;;5032447;28;20041;-60
2023/01/28 07:30:17;;;;;;;13.10;11.23;;;2.10;99.90;;;;;;5071011;28;20516;-60
2023/01/28 07:32:43;;;;;;;12.57;11.10;;;2.40;99.90;;;;;;5064809;28;20043;-60
2023/01/28 07:35:08;;;;;;;12.80;11.32;;;1.90;99.90;;;;;;5049011;28;20087;-61
2023/01/28 07:37:34;;;;;;;12.55;11.20;;;2.60;99.90;;;;;;5049068;28;20061;-61
2023/01/28 07:40:00;;;;;;;13.18;11.82;;;2.20;99.90;;;;;;5046794;28;20037;-61
2023/01/28 07:42:25;;;;;;;12.35;11.05;;;2.00;99.90;;;;;;5050574;28;20037;-61
2023/01/28 07:44:51;;;;;;;14.50;11.50;;;2.40;99.90;;;;;;5052670;28;20037;-61
2023/01/28 07:47:16;;;;;;;15.75;11.40;;;2.30;99.90;;;;;;5047950;28;20049;-61
2023/01/28 07:49:42;;;;;;;13.80;11.68;;;2.40;99.90;;;;;;5053780;28;20119;-61
2023/01/28 07:52:08;;;;;;;15.55;11.95;;;1.90;99.90;;;;;;5052524;28;20045;-61
2023/01/28 07:54:33;;;;;;;13.45;11.55;;;2.00;99.90;;;;;;5050719;28;20036;-61
2023/01/28 07:56:59;;;;;;;16.27;12.07;;;2.00;99.90;;;;;;5047437;28;20068;-61
2023/01/28 07:59:25;;;;;;;15.38;12.07;;;2.40;99.90;;;;;;5044998;28;20174;-61
2023/01/28 08:01:51;;;;;;;15.55;10.60;;;2.30;99.90;;;;;;5054113;28;20068;-61
2023/01/28 08:04:17;;;;;;;13.13;11.20;;;2.00;99.90;;;;;;5051396;28;20044;-61
2023/01/28 08:06:42;;;;;;;12.82;11.52;;;2.00;99.90;;;;;;5052526;28;20436;-61
2023/01/28 08:09:08;;;;;;;13.50;11.23;;;2.00;99.90;;;;;;5069673;28;20048;-61
2023/01/28 08:11:37;;;;;;;13.45;12.00;;;1.90;99.90;;;;;;5053385;28;20040;-61
2023/01/28 08:14:02;;;;;;;12.88;11.52;;;2.30;99.90;;;;;;5054275;28;20037;-61
2023/01/28 08:16:28;;;;;;;14.35;10.90;;;2.00;99.90;;;;;;5053497;28;20041;-61
2023/01/28 08:18:54;;;;;;;11.98;10.77;;;2.10;99.90;;;;;;5047832;28;20548;-61
2023/01/28 08:21:20;;;;;;;12.70;11.35;;;2.20;99.90;;;;;;5041677;28;20033;-62
2023/01/28 08:23:45;;;;;;;13.65;11.73;;;2.60;99.90;;;;;;5045458;28;20106;-62
2023/01/28 08:26:11;;;;;;;12.52;11.23;;;2.90;99.90;;;;;;5043753;28;20064;-61
2023/01/28 08:28:36;;;;;;;11.95;10.75;;;2.90;99.90;;;;;;5050581;28;20045;-62
2023/01/28 08:31:02;;;;;;;11.48;10.35;;;3.10;99.90;;;;;;5050931;28;20071;-62
2023/01/28 08:33:28;;;;;;;11.23;10.02;;;3.20;99.90;;;;;;5041968;28;20030;-62
2023/01/28 08:35:53;;;;;;;11.60;10.40;;;3.30;99.90;;;;;;5047768;28;20037;-62
2023/01/28 08:38:19;;;;;;;11.52;9.85;;;3.00;99.90;;;;;;5052088;28;20036;-61
2023/01/28 08:40:45;;;;;;;11.68;10.48;;;3.20;99.90;;;;;;5047464;28;20037;-61
2023/01/28 08:43:11;;;;;;;11.77;10.55;;;2.80;99.90;;;;;;5041499;28;20077;-62
2023/01/28 08:45:39;;;;;;;11.88;10.68;;;2.90;99.90;;;;;;5042038;28;20678;-61
2023/01/28 08:48:06;;;;;;;11.38;10.18;;;3.30;99.90;;;;;;5050962;28;20756;-61
2023/01/28 08:50:35;;;;;;;11.15;9.95;;;3.40;99.90;;;;;;5048145;28;20175;-62
2023/01/28 08:53:03;;;;;;;11.43;10.32;;;3.30;99.90;;;;;;5051667;28;20041;-61
2023/01/28 08:55:29;;;;;;;11.45;10.27;;;3.50;99.90;;;;;;5050210;28;20068;-61
2023/01/28 08:57:55;;;;;;;12.52;10.93;;;3.30;99.90;;;;;;5047505;28;20467;-61
2023/01/28 09:00:22;;;;;;;13.98;10.80;;;3.60;99.90;;;;;;5045544;28;20036;-61
2023/01/28 09:02:51;;;;;;;13.48;11.00;;;3.80;99.90;;;;;;5044638;28;20037;-60
2023/01/28 09:05:17;;;;;;;12.10;10.20;;;3.80;99.90;;;;;;5052894;28;20045;-61
2023/01/28 09:07:43;;;;;;;14.35;10.70;;;3.50;99.90;;;;;;5051932;28;20654;-61
2023/01/28 09:10:09;;;;;;;13.30;10.82;;;4.00;99.90;;;;;;5051241;28;20479;-61
2023/01/28 09:12:35;;;;;;;12.00;10.75;;;3.60;99.90;;;;;;5062309;28;20036;-61
2023/01/28 09:15:01;;;;;;;10.90;9.73;;;4.00;99.90;;;;;;5048029;28;20040;-61
2023/01/28 09:17:26;;;;;;;16.92;11.48;;;3.70;99.90;;;;;;5050183;28;20044;-60
2023/01/28 09:19:52;;;;;;;11.25;10.13;;;4.30;99.90;;;;;;5046643;28;20040;-61
2023/01/28 09:22:17;;;;;;;11.32;10.18;;;4.00;99.90;;;;;;5051713;28;20546;-61
2023/01/28 09:24:43;;;;;;;11.32;10.13;;;4.40;99.90;;;;;;5049133;28;20483;-61
2023/01/28 09:27:08;;;;;;;12.65;10.25;;;4.50;99.90;;;;;;5050594;28;20414;-61
2023/01/28 09:29:34;;;;;;;12.88;10.80;;;4.40;99.90;;;;;;5051580;28;20040;-61
2023/01/28 09:32:00;;;;;;;12.05;9.85;;;4.30;99.90;;;;;;5051530;28;20094;-61
2023/01/28 09:34:25;;;;;;;12.20;10.45;;;4.60;99.90;;;;;;5049423;28;20437;-61
2023/01/28 09:36:51;;;;;;;21.10;10.07;;;4.70;99.90;;;;;;5048992;28;20052;-61
2023/01/28 09:39:17;;;;;;;11.25;9.82;;;4.90;99.90;;;;;;5049551;28;20077;-61
2023/01/28 09:42:31;;;;;;;14.70;10.30;;;4.70;99.90;;;;;;5047518;28;20067;-61
2023/01/28 09:45:11;;;;;;;1959.70;185.73;;;4.90;99.90;;;;;;5036441;28;20067;-62
2023/01/28 09:47:46;;;;;;;98.53;14.40;;;5.10;1.00;;;;;;5040449;28;20045;-61
2023/01/28 09:50:32;;;;;;;14.32;10.05;;;5.60;1.00;;;;;;5047823;28;20080;-61
2023/01/28 09:53:11;;;;;;;10.32;8.93;;;5.00;1.00;;;;;;5050362;28;20041;-61
2023/01/28 09:55:43;;;;;;;11.02;8.95;;;5.10;1.00;;;;;;5051691;28;20045;-61
2023/01/28 09:58:14;;;;;;;9.80;8.80;;;5.70;1.00;;;;;;5048921;28;20375;-62
2023/01/28 10:01:01;;;;;;;11.02;8.43;;;5.90;1.00;;;;;;5052035;28;20425;-62
2023/01/28 10:03:48;;;;;;;10.48;8.27;;;5.70;1.00;;;;;;5050074;28;20044;-62
2023/01/28 10:06:25;;;;;;;8.52;6.70;;;5.90;1.00;;;;;;5051830;28;20108;-63
2023/01/28 10:09:06;;;;;;;9.10;6.30;;;6.10;1.00;;;;;;5064502;28;20419;-62
2023/01/28 10:11:57;;;;;;;5.95;5.35;;;6.50;1.00;;;;;;5049250;28;20052;-63
2023/01/28 10:14:50;;;;;;;6.55;5.20;;;6.30;99.90;;;;;;5044026;28;20075;-62
2023/01/28 10:17:35;;;;;;;6.70;4.78;;;6.20;99.90;;;;;;5047008;28;20045;-62
2023/01/28 10:20:24;;;;;;;6.53;5.10;;;6.40;99.90;;;;;;5063702;28;20040;-62
2023/01/28 10:22:56;;;;;;;7.85;5.95;;;6.50;99.90;;;;;;5047917;28;20079;-62
2023/01/28 10:25:24;;;;;;;11.38;5.28;;;6.40;99.90;;;;;;5043701;28;20044;-62
2023/01/28 10:27:51;;;;;;;7.57;5.20;;;6.50;99.90;;;;;;5062291;28;20132;-62
2023/01/28 10:30:20;;;;;;;6.70;4.90;;;6.80;96.30;;;;;;5050378;28;20036;-62
2023/01/28 10:32:51;;;;;;;5.95;4.65;;;7.00;77.50;;;;;;5041834;28;20029;-63
2023/01/28 10:35:17;;;;;;;8.45;4.72;;;6.80;10.70;;;;;;5046534;28;20041;-63
2023/01/28 10:37:43;;;;;;;7.43;4.05;;;6.80;1.00;;;;;;5032847;28;20034;-62
2023/01/28 10:40:16;;;;;;;5.88;3.80;;;6.70;1.00;;;;;;5050507;28;20074;-62
2023/01/28 10:42:43;;;;;;;6.93;3.40;;;6.90;1.00;;;;;;5050481;28;20041;-62
2023/01/28 10:45:22;;;;;;;4.40;3.28;;;6.70;1.00;;;;;;5048502;28;20084;-62
2023/01/28 10:47:55;;;;;;;4.50;3.40;;;6.70;1.00;;;;;;5050750;28;20063;-62
2023/01/28 10:50:25;;;;;;;4.32;3.10;;;6.70;1.00;;;;;;5049644;28;21620;-63
2023/01/28 10:52:57;;;;;;;6.45;3.75;;;6.60;99.90;;;;;;5050901;28;20036;-62
2023/01/28 10:55:26;;;;;;;7.55;3.72;;;6.50;99.90;;;;;;5048043;28;20043;-62
2023/01/28 10:57:53;;;;;;;6.22;3.95;;;6.50;99.90;;;;;;5049511;28;20044;-62
2023/01/28 11:00:24;;;;;;;6.43;4.47;;;6.60;99.90;;;;;;5081488;28;20390;-61
2023/01/28 11:02:50;;;;;;;8.48;5.28;;;6.50;99.90;;;;;;5035124;28;20487;-62
2023/01/28 11:05:25;;;;;;;7.50;5.03;;;6.60;99.90;;;;;;5045648;28;20047;-62
2023/01/28 11:08:15;;;;;;;7.03;5.70;;;6.60;99.90;;;;;;5043593;28;20538;-61
2023/01/28 11:10:42;;;;;;;8.32;5.63;;;6.50;99.90;;;;;;5049284;28;20033;-62
2023/01/28 11:13:20;;;;;;;10.20;5.57;;;6.40;99.90;;;;;;5047880;28;20029;-61
2023/01/28 11:16:02;;;;;;;7.68;5.18;;;6.40;99.90;;;;;;5040968;28;20083;-62
2023/01/28 11:18:31;;;;;;;10.13;5.28;;;6.50;99.90;;;;;;5040949;28;20388;-61
2023/01/28 11:21:00;;;;;;;6.72;4.95;;;6.40;99.90;;;;;;5049236;28;20041;-61
2023/01/28 11:23:32;;;;;;;6.03;4.63;;;6.20;99.90;;;;;;5048900;28;20040;-61
2023/01/28 11:26:16;;;;;;;7.22;4.93;;;6.20;99.90;;;;;;5048385;28;20770;-61
2023/01/28 11:28:43;;;;;;;6.32;4.60;;;6.10;99.90;;;;;;5054253;28;20045;-61
2023/01/28 11:31:11;;;;;;;4.90;4.38;;;6.20;99.90;;;;;;5060934;28;20029;-61
2023/01/28 11:33:42;;;;;;;6.72;4.75;;;6.00;99.90;;;;;;5051723;28;20043;-61
2023/01/28 11:36:14;;;;;;;10.10;5.57;;;5.90;99.90;;;;;;5052290;28;20501;-62
2023/01/28 11:38:58;;;;;;;5.75;4.55;;;6.10;99.90;;;;;;5053332;28;20048;-62
2023/01/28 11:41:34;;;;;;;5.90;4.68;;;6.40;99.90;;;;;;5080314;28;20103;-62
2023/01/28 11:44:21;;;;;;;7.00;4.60;;;6.60;99.90;;;;;;5052724;28;20033;-62
2023/01/28 11:47:04;;;;;;;7.35;4.75;;;6.60;99.90;;;;;;5054300;28;20044;-62
2023/01/28 11:49:45;;;;;;;6.47;4.22;;;7.10;99.90;;;;;;5050408;28;20040;-62
2023/01/28 11:52:31;;;;;;;7.22;3.53;;;7.20;99.90;;;;;;5053216;28;20049;-63
2023/01/28 11:55:26;;;;;;;4.75;3.00;;;7.20;99.90;;;;;;5042580;28;20048;-62
2023/01/28 11:58:04;;;;;;;5.22;3.10;;;7.10;99.90;;;;;;5054016;28;20044;-62
2023/01/28 12:00:54;;;;;;;6.57;3.13;;;7.20;99.90;;;;;;5069229;28;20458;-63
2023/01/28 12:03:38;;;;;;;4.72;2.70;;;7.20;99.90;;;;;;5045941;28;20037;-62
2023/01/28 12:06:12;;;;;;;6.93;2.80;;;7.00;99.90;;;;;;5048614;28;20036;-62
2023/01/28 12:08:56;;;;;;;6.15;2.50;;;7.10;99.90;;;;;;5050360;28;20052;-62
2023/01/28 12:12:10;;;;;;;7.35;2.35;;;7.00;99.90;;;;;;5053861;28;20048;-63
2023/01/28 12:14:57;;;;;;;6.25;2.60;;;7.10;99.90;;;;;;5075560;28;20483;-62
2023/01/28 12:17:38;;;;;;;6.65;3.30;;;7.00;99.90;;;;;;5051891;28;20044;-71
2023/01/28 12:20:30;;;;;;;6.43;3.10;;;6.80;99.90;;;;;;5051125;28;20051;-60
2023/01/28 12:23:13;;;;;;;8.30;3.83;;;6.80;99.90;;;;;;5040098;28;20095;-62
2023/01/28 12:25:48;;;;;;;6.25;3.60;;;6.70;99.90;;;;;;5067433;28;20144;-62
2023/01/28 12:29:07;;;;;;;6.50;3.95;;;6.40;99.90;;;;;;5053964;28;20040;-62
2023/01/28 12:32:10;;;;;;;9.18;4.70;;;6.30;99.90;;;;;;4984578;28;20556;-61
2023/01/28 12:34:55;;;;;;;7.70;4.22;;;6.00;99.90;;;;;;5050731;28;20063;-62
2023/01/28 12:37:34;;;;;;;8.85;4.88;;;6.10;99.90;;;;;;5067122;28;20608;-62
2023/01/28 12:40:08;;;;;;;9.35;4.20;;;5.70;99.90;;;;;;5053750;28;20033;-63
2023/01/28 12:42:52;;;;;;;5.88;3.70;;;5.40;99.90;;;;;;5051480;28;20044;-62
2023/01/28 12:45:31;;;;;;;6.30;3.90;;;5.20;99.90;;;;;;5051335;28;20112;-62
2023/01/28 12:48:06;;;;;;;54.38;6.90;;;5.20;99.90;;;;;;5052362;28;20048;-62
2023/01/28 12:50:38;;;;;;;6.72;3.88;;;5.60;99.90;;;;;;5051024;28;20041;-62
2023/01/28 12:53:27;;;;;;;8.73;3.88;;;5.90;99.90;;;;;;5051648;28;20566;-62
2023/01/28 12:56:09;;;;;;;6.05;3.03;;;6.40;99.90;;;;;;5050436;28;20048;-62
2023/01/28 12:58:56;;;;;;;7.65;3.40;;;6.50;99.90;;;;;;5053236;28;20040;-62
2023/01/28 13:01:36;;;;;;;6.28;3.08;;;6.80;99.90;;;;;;5046378;28;20049;-62
2023/01/28 13:04:16;;;;;;;8.07;2.97;;;6.90;99.90;;;;;;5053187;28;20134;-62
2023/01/28 13:06:49;;;;;;;4.82;3.03;;;7.00;99.90;;;;;;5053456;28;20052;-63
2023/01/28 13:09:20;;;;;;;6.53;3.20;;;7.10;99.90;;;;;;5053254;28;20036;-62
2023/01/28 13:11:49;;;;;;;5.30;3.40;;;7.10;99.90;;;;;;5055421;28;20091;-62
2023/01/28 13:14:16;;;;;;;7.07;3.20;;;7.00;99.90;;;;;;5051653;28;20116;-62
2023/01/28 13:16:42;;;;;;;6.80;3.10;;;7.00;99.90;;;;;;5049198;28;20495;-62
2023/01/28 13:19:17;;;;;;;8.07;3.10;;;7.10;99.90;;;;;;5047986;28;20041;-63
2023/01/28 13:21:43;;;;;;;4.85;2.53;;;7.00;99.90;;;;;;5044137;28;20045;-63
2023/01/28 13:24:08;;;;;;;5.78;3.50;;;6.90;99.90;;;;;;5051152;28;20118;-63
2023/01/28 13:26:54;;;;;;;6.97;2.85;;;7.00;99.90;;;;;;5050996;28;20060;-62
2023/01/28 13:29:26;;;;;;;4.63;2.70;;;7.00;99.90;;;;;;5037465;28;20538;-62
2023/01/28 13:31:54;;;;;;;5.72;2.90;;;7.00;99.90;;;;;;5052924;28;20045;-62
2023/01/28 13:34:42;;;;;;;6.22;3.00;;;7.00;99.90;;;;;;5048909;28;20120;-62
2023/01/28 13:37:32;;;;;;;5.88;2.88;;;7.10;99.90;;;;;;5050465;28;20091;-63
2023/01/28 13:40:08;;;;;;;10.07;2.70;;;7.10;99.90;;;;;;5050974;28;20099;-63